Time;durP1;ratioP1;P1;durP2;ratioP2;P2;SDS_P1;SDS_P2;PMS_P1;PMS_P2;Temp;Humidity;BMP_temperature;BMP_pressure;BME280_temperature;BME280_humidity;BME280_pressure;Samples;Min_cycle;Max_cycle;Signal;HPM_P1;HPM_P2
2023/02/06 00:01:11;;;;;;;8.10;5.17;;;;;;;;;;4349371;32;315576;-87
2023/02/06 00:03:40;;;;;;;9.23;6.50;;;;;;;;;;4358506;32;315615;-88
2023/02/06 00:06:08;;;;;;;10.37;7.93;;;;;;;;;;4358952;32;316312;-88
2023/02/06 00:08:35;;;;;;;12.17;7.13;;;;;;;;;;4347139;32;416043;-88
2023/02/06 00:11:04;;;;;;;7.33;4.93;;;;;;;;;;4358748;32;317141;-88
2023/02/06 00:13:31;;;;;;;7.53;5.50;;;;;;;;;;4349394;32;315484;-88
2023/02/06 00:15:58;;;;;;;17.23;9.20;;;;;;;;;;4359274;32;316346;-87
2023/02/06 00:18:25;;;;;;;9.30;6.13;;;;;;;;;;4349260;32;317247;-88
2023/02/06 00:20:53;;;;;;;7.77;5.27;;;;;;;;;;4359495;32;316309;-88
2023/02/06 00:23:20;;;;;;;6.63;5.20;;;;;;;;;;4349344;32;316092;-88
2023/02/06 00:25:47;;;;;;;6.37;4.97;;;;;;;;;;4359359;32;316313;-87
2023/02/06 00:28:14;;;;;;;10.30;4.67;;;;;;;;;;4349191;32;316473;-88
2023/02/06 00:30:41;;;;;;;4.90;3.80;;;;;;;;;;4360200;32;317336;-88
2023/02/06 00:33:07;;;;;;;5.17;3.80;;;;;;;;;;4358489;32;315632;-87
2023/02/06 00:35:34;;;;;;;5.27;3.70;;;;;;;;;;4344073;32;415315;-87
2023/02/06 00:38:05;;;;;;;6.63;3.77;;;;;;;;;;4358196;32;315509;-88
2023/02/06 00:40:32;;;;;;;7.13;4.40;;;;;;;;;;4349244;32;316356;-88
2023/02/06 00:42:59;;;;;;;7.70;4.80;;;;;;;;;;4359025;32;315619;-88
2023/02/06 00:45:26;;;;;;;10.50;4.87;;;;;;;;;;4347940;32;316350;-87
2023/02/06 00:47:52;;;;;;;12.63;4.90;;;;;;;;;;4357534;32;316747;-87
2023/02/06 00:50:19;;;;;;;7.57;4.33;;;;;;;;;;4347684;32;316864;-87
2023/02/06 00:52:46;;;;;;;12.03;4.67;;;;;;;;;;4358604;32;316373;-88
2023/02/06 00:55:14;;;;;;;15.57;6.23;;;;;;;;;;4348210;32;316499;-87
2023/02/06 00:57:41;;;;;;;10.13;5.07;;;;;;;;;;4357984;32;317608;-87
2023/02/06 01:00:12;;;;;;;7.37;4.77;;;;;;;;;;4357997;32;316491;-86
2023/02/06 01:02:38;;;;;;;4.63;3.63;;;;;;;;;;4344090;32;414027;-87
2023/02/06 01:05:06;;;;;;;4.40;3.80;;;;;;;;;;4358065;32;315492;-87
2023/02/06 01:07:33;;;;;;;5.77;4.03;;;;;;;;;;4348576;32;316269;-86
2023/02/06 01:10:00;;;;;;;4.67;3.57;;;;;;;;;;4359420;32;315494;-86
2023/02/06 01:12:28;;;;;;;7.30;4.60;;;;;;;;;;4347488;32;316317;-87
2023/02/06 01:14:55;;;;;;;5.47;3.57;;;;;;;;;;4357603;32;316075;-87
2023/02/06 01:17:21;;;;;;;3.80;3.00;;;;;;;;;;4347050;32;316347;-88
2023/02/06 01:19:48;;;;;;;7.17;3.57;;;;;;;;;;4357632;32;315539;-87
2023/02/06 01:22:15;;;;;;;3.90;3.50;;;;;;;;;;4347647;32;315469;-86
2023/02/06 01:24:42;;;;;;;4.97;3.40;;;;;;;;;;4358053;32;316525;-87
2023/02/06 01:27:09;;;;;;;5.20;3.40;;;;;;;;;;4353490;32;315505;-87
2023/02/06 01:29:37;;;;;;;3.57;2.77;;;;;;;;;;4356928;32;315623;-87
2023/02/06 01:32:04;;;;;;;5.30;4.20;;;;;;;;;;4358098;32;316206;-87
2023/02/06 01:34:31;;;;;;;6.30;4.47;;;;;;;;;;4347940;32;315540;-87
2023/02/06 01:36:58;;;;;;;4.63;3.80;;;;;;;;;;4357488;32;315915;-87
2023/02/06 01:39:25;;;;;;;5.90;4.50;;;;;;;;;;4347553;32;316292;-87
2023/02/06 01:41:51;;;;;;;5.50;4.10;;;;;;;;;;4356977;32;315651;-87
2023/02/06 01:44:21;;;;;;;4.50;3.67;;;;;;;;;;4347147;32;316367;-86
2023/02/06 01:46:51;;;;;;;10.10;5.30;;;;;;;;;;4357484;32;315512;-87
2023/02/06 01:49:23;;;;;;;6.63;4.50;;;;;;;;;;4351604;32;316495;-87
2023/02/06 01:51:52;;;;;;;7.77;4.90;;;;;;;;;;4358494;32;316087;-88
2023/02/06 01:54:19;;;;;;;5.77;4.37;;;;;;;;;;4355418;32;315602;-87
2023/02/06 01:56:51;;;;;;;6.17;4.00;;;;;;;;;;4373637;32;315092;-87
2023/02/06 01:59:19;;;;;;;11.90;6.90;;;;;;;;;;4361186;32;330804;-87
2023/02/06 02:01:47;;;;;;;10.57;6.37;;;;;;;;;;4373452;32;325862;-87
2023/02/06 02:04:18;;;;;;;11.43;6.17;;;;;;;;;;4362842;32;315987;-86
2023/02/06 02:06:48;;;;;;;6.77;4.03;;;;;;;;;;4372853;32;316275;-87
2023/02/06 02:09:16;;;;;;;5.90;3.90;;;;;;;;;;4363197;32;340752;-86
2023/02/06 02:11:43;;;;;;;8.03;4.27;;;;;;;;;;4367479;32;315606;-87
2023/02/06 02:14:14;;;;;;;8.27;4.47;;;;;;;;;;4349315;32;316268;-86
2023/02/06 02:16:52;;;;;;;4.80;3.70;;;;;;;;;;4363585;32;316229;-88
2023/02/06 02:19:52;;;;;;;6.93;4.33;;;;;;;;;;4348318;32;315573;-87
2023/02/06 02:22:44;;;;;;;6.87;5.10;;;;;;;;;;4348598;32;315587;-87
2023/02/06 02:25:39;;;;;;;7.23;4.33;;;;;;;;;;4346922;32;316283;-86
2023/02/06 02:28:30;;;;;;;7.70;5.40;;;;;;;;;;4359804;32;316389;-88
2023/02/06 02:31:19;;;;;;;5.27;3.77;;;;;;;;;;4346533;32;416392;-87
2023/02/06 02:34:11;;;;;;;4.53;3.33;;;;;;;;;;4345189;32;414780;-88
2023/02/06 02:36:43;;;;;;;4.47;3.27;;;;;;;;;;4330180;33;417046;-87
2023/02/06 02:39:17;;;;;;;3.83;2.93;;;;;;;;;;4330522;33;317886;-87
2023/02/06 02:41:53;;;;;;;5.93;3.77;;;;;;;;;;4342124;33;316415;-87
2023/02/06 02:44:29;;;;;;;5.83;4.67;;;;;;;;;;4331813;32;315516;-87
2023/02/06 02:47:00;;;;;;;8.90;5.23;;;;;;;;;;4343433;33;315990;-88
2023/02/06 02:49:32;;;;;;;9.13;6.30;;;;;;;;;;4332735;32;315396;-88
2023/02/06 02:52:02;;;;;;;5.60;3.80;;;;;;;;;;4341608;33;315513;-88
2023/02/06 02:54:29;;;;;;;5.47;4.13;;;;;;;;;;4331695;32;316342;-86
2023/02/06 02:57:00;;;;;;;7.70;4.67;;;;;;;;;;4340712;33;316458;-87
2023/02/06 02:59:34;;;;;;;6.43;4.43;;;;;;;;;;4332750;32;316293;-88
2023/02/06 03:02:05;;;;;;;5.10;4.27;;;;;;;;;;4340373;33;347149;-88
2023/02/06 03:04:37;;;;;;;7.13;4.73;;;;;;;;;;4331078;32;315535;-87
2023/02/06 03:07:17;;;;;;;7.40;4.93;;;;;;;;;;4342328;33;315654;-87
2023/02/06 03:09:53;;;;;;;3.60;3.23;;;;;;;;;;4328760;33;415263;-87
2023/02/06 03:12:27;;;;;;;4.67;3.97;;;;;;;;;;4332368;33;316241;-88
2023/02/06 03:14:58;;;;;;;7.60;5.20;;;;;;;;;;4342834;33;315604;-87
2023/02/06 03:17:34;;;;;;;4.57;4.13;;;;;;;;;;4331606;32;316150;-87
2023/02/06 03:20:04;;;;;;;4.10;3.70;;;;;;;;;;4341395;33;316194;-87
2023/02/06 03:22:35;;;;;;;8.50;5.67;;;;;;;;;;4332978;32;315462;-87
2023/02/06 03:25:04;;;;;;;4.43;3.20;;;;;;;;;;4345328;32;315648;-86
2023/02/06 03:27:32;;;;;;;5.23;3.90;;;;;;;;;;4335549;32;315619;-87
2023/02/06 03:30:01;;;;;;;4.27;3.40;;;;;;;;;;4345565;32;315470;-87
2023/02/06 03:32:32;;;;;;;3.57;3.27;;;;;;;;;;4341846;32;316338;-87
2023/02/06 03:35:03;;;;;;;4.97;3.77;;;;;;;;;;4358836;32;316012;-87
2023/02/06 03:37:30;;;;;;;5.17;3.77;;;;;;;;;;4349360;32;314118;-89
2023/02/06 03:40:00;;;;;;;5.47;4.43;;;;;;;;;;4358629;32;315022;-87
2023/02/06 03:42:29;;;;;;;5.23;3.87;;;;;;;;;;4349550;32;316094;-88
2023/02/06 03:45:01;;;;;;;6.70;4.30;;;;;;;;;;4359316;32;316022;-88
2023/02/06 03:47:29;;;;;;;5.30;4.37;;;;;;;;;;4346501;32;330942;-87
2023/02/06 03:50:00;;;;;;;5.90;4.13;;;;;;;;;;4349161;32;316531;-87
2023/02/06 03:52:34;;;;;;;9.77;5.53;;;;;;;;;;4334440;32;316204;-90
2023/02/06 03:55:10;;;;;;;6.17;4.33;;;;;;;;;;4344852;32;322488;-87
2023/02/06 03:57:41;;;;;;;6.37;4.20;;;;;;;;;;4331470;32;415503;-87
2023/02/06 04:00:09;;;;;;;6.13;3.33;;;;;;;;;;4343615;32;315533;-87
2023/02/06 04:02:38;;;;;;;6.43;4.03;;;;;;;;;;4331428;32;415922;-86
2023/02/06 04:05:06;;;;;;;7.80;4.40;;;;;;;;;;4343524;32;316600;-87
2023/02/06 04:07:35;;;;;;;8.63;5.43;;;;;;;;;;4332157;32;357549;-89
2023/02/06 04:10:04;;;;;;;8.33;5.90;;;;;;;;;;4344356;32;316582;-87
2023/02/06 04:12:31;;;;;;;10.43;5.03;;;;;;;;;;4333348;32;316200;-89
2023/02/06 04:14:58;;;;;;;6.00;4.13;;;;;;;;;;4343034;32;317201;-87
2023/02/06 04:17:24;;;;;;;8.43;5.10;;;;;;;;;;4334788;32;315616;-87
2023/02/06 04:19:51;;;;;;;7.20;4.87;;;;;;;;;;4344579;32;315702;-87
2023/02/06 04:22:18;;;;;;;21.80;9.27;;;;;;;;;;4334570;32;315546;-87
2023/02/06 04:24:45;;;;;;;7.50;5.17;;;;;;;;;;4343860;32;317388;-87
2023/02/06 04:27:15;;;;;;;18.10;5.87;;;;;;;;;;4333881;32;316491;-87
2023/02/06 04:29:42;;;;;;;12.67;7.17;;;;;;;;;;4343847;32;317369;-87
2023/02/06 04:32:12;;;;;;;6.93;4.40;;;;;;;;;;4333429;32;316700;-84
2023/02/06 04:34:39;;;;;;;8.57;5.53;;;;;;;;;;4343248;32;315472;-87
2023/02/06 04:37:06;;;;;;;4.30;3.77;;;;;;;;;;4342715;32;315396;-87
2023/02/06 04:39:35;;;;;;;7.77;5.20;;;;;;;;;;4334170;32;315887;-88
2023/02/06 04:42:02;;;;;;;15.87;10.17;;;;;;;;;;4344464;32;315411;-87
2023/02/06 04:44:31;;;;;;;5.87;4.63;;;;;;;;;;4333954;32;318548;-87
2023/02/06 04:46:58;;;;;;;8.87;6.80;;;;;;;;;;4341021;32;352294;-87
2023/02/06 04:49:24;;;;;;;5.17;4.57;;;;;;;;;;4334096;32;315743;-88
2023/02/06 04:51:51;;;;;;;12.10;8.07;;;;;;;;;;4344484;32;316386;-88
2023/02/06 04:54:18;;;;;;;15.70;10.53;;;;;;;;;;4334321;32;317440;-88
2023/02/06 04:56:45;;;;;;;11.20;8.30;;;;;;;;;;4343410;32;317962;-87
2023/02/06 04:59:13;;;;;;;8.77;5.50;;;;;;;;;;4333808;32;316631;-86
2023/02/06 05:01:42;;;;;;;8.07;5.73;;;;;;;;;;4343440;32;315396;-88
2023/02/06 05:04:08;;;;;;;8.37;5.40;;;;;;;;;;4346202;32;315554;-88
2023/02/06 05:06:36;;;;;;;10.00;6.00;;;;;;;;;;4335198;32;415210;-88
2023/02/06 05:09:03;;;;;;;6.37;5.10;;;;;;;;;;4357750;32;316169;-88
2023/02/06 05:11:30;;;;;;;6.77;5.30;;;;;;;;;;4348818;32;314115;-87
2023/02/06 05:13:57;;;;;;;6.33;4.97;;;;;;;;;;4358237;32;314297;-88
2023/02/06 05:16:24;;;;;;;7.30;5.43;;;;;;;;;;4348682;32;314223;-88
2023/02/06 05:18:54;;;;;;;13.50;7.00;;;;;;;;;;4354430;32;315406;-88
2023/02/06 05:21:22;;;;;;;12.83;7.90;;;;;;;;;;4336106;32;317005;-88
2023/02/06 05:23:48;;;;;;;15.90;8.00;;;;;;;;;;4344773;32;316664;-88
2023/02/06 05:26:15;;;;;;;15.73;9.47;;;;;;;;;;4335005;32;317411;-87
2023/02/06 05:28:44;;;;;;;13.73;7.57;;;;;;;;;;4343847;32;316634;-89
2023/02/06 05:31:16;;;;;;;17.30;9.00;;;;;;;;;;4333299;32;316855;-88
2023/02/06 05:33:44;;;;;;;21.10;10.33;;;;;;;;;;4344419;32;317391;-88
2023/02/06 05:36:12;;;;;;;14.50;8.70;;;;;;;;;;4335211;32;317858;-88
2023/02/06 05:38:39;;;;;;;11.37;7.10;;;;;;;;;;4343539;32;317472;-89
2023/02/06 05:41:06;;;;;;;9.50;6.93;;;;;;;;;;4343123;32;316158;-88
2023/02/06 05:43:33;;;;;;;28.03;14.23;;;;;;;;;;4334299;32;315732;-87
2023/02/06 05:46:01;;;;;;;30.50;10.77;;;;;;;;;;4343037;32;318302;-88
2023/02/06 05:48:29;;;;;;;17.50;9.30;;;;;;;;;;4333676;32;318067;-88
2023/02/06 05:50:57;;;;;;;47.03;16.57;;;;;;;;;;4346228;32;317388;-88
2023/02/06 05:53:25;;;;;;;21.47;12.83;;;;;;;;;;4334515;32;317649;-88
2023/02/06 05:55:53;;;;;;;12.87;7.53;;;;;;;;;;4344302;32;317687;-88
2023/02/06 05:58:21;;;;;;;10.67;7.40;;;;;;;;;;4333127;32;317803;-88
2023/02/06 06:00:48;;;;;;;21.27;8.73;;;;;;;;;;4341584;32;317380;-88
2023/02/06 06:03:15;;;;;;;13.43;6.87;;;;;;;;;;4332824;32;316646;-88
2023/02/06 06:05:42;;;;;;;9.60;6.90;;;;;;;;;;4342495;32;350672;-88
2023/02/06 06:08:08;;;;;;;33.60;12.90;;;;;;;;;;4343102;32;314213;-88
2023/02/06 06:10:37;;;;;;;10.73;6.50;;;;;;;;;;4330689;32;417418;-89
2023/02/06 06:13:03;;;;;;;14.17;9.03;;;;;;;;;;4342483;32;316565;-88
2023/02/06 06:15:30;;;;;;;13.77;7.57;;;;;;;;;;4333197;32;317488;-89
2023/02/06 06:17:57;;;;;;;16.57;8.17;;;;;;;;;;4343173;32;316617;-89
2023/02/06 06:20:24;;;;;;;15.40;7.67;;;;;;;;;;4333658;32;317440;-89
2023/02/06 06:22:51;;;;;;;10.77;7.47;;;;;;;;;;4342791;32;316732;-88
2023/02/06 06:25:18;;;;;;;14.97;7.93;;;;;;;;;;4325062;32;317415;-88
2023/02/06 06:27:46;;;;;;;4.77;4.27;;;;;;;;;;4343254;32;315385;-86
2023/02/06 06:30:14;;;;;;;25.57;13.53;;;;;;;;;;4333319;33;315997;-88
2023/02/06 06:32:40;;;;;;;21.83;9.70;;;;;;;;;;4344784;32;318865;-88
2023/02/06 06:35:08;;;;;;;22.43;12.87;;;;;;;;;;4346754;33;316523;-88
2023/02/06 06:37:35;;;;;;;20.30;10.07;;;;;;;;;;4354329;32;420076;-88
2023/02/06 06:40:02;;;;;;;15.20;9.13;;;;;;;;;;4362224;32;335526;-87
2023/02/06 06:42:28;;;;;;;33.40;20.07;;;;;;;;;;4350003;32;317060;-87
2023/02/06 06:44:57;;;;;;;29.30;17.23;;;;;;;;;;4359021;32;317295;-87
2023/02/06 06:47:24;;;;;;;26.93;15.07;;;;;;;;;;4348104;32;318473;-87
2023/02/06 06:49:51;;;;;;;19.23;11.07;;;;;;;;;;4356830;32;317634;-87
2023/02/06 06:52:18;;;;;;;19.67;11.83;;;;;;;;;;4346991;32;317861;-87
2023/02/06 06:54:45;;;;;;;40.90;22.33;;;;;;;;;;4355653;32;358941;-87
2023/02/06 06:57:12;;;;;;;26.83;15.13;;;;;;;;;;4348702;32;318837;-87
2023/02/06 06:59:39;;;;;;;29.73;14.03;;;;;;;;;;4360508;32;317561;-87
2023/02/06 07:02:07;;;;;;;19.53;12.00;;;;;;;;;;4360302;32;317672;-89
2023/02/06 07:04:34;;;;;;;21.20;11.30;;;;;;;;;;4332626;32;417058;-89
2023/02/06 07:07:01;;;;;;;23.13;14.43;;;;;;;;;;4346262;32;317884;-88
2023/02/06 07:09:28;;;;;;;19.10;12.50;;;;;;;;;;4334573;32;317766;-87
2023/02/06 07:11:55;;;;;;;16.30;10.30;;;;;;;;;;4343063;32;318390;-87
2023/02/06 07:14:22;;;;;;;11.43;6.03;;;;;;;;;;4333569;32;318680;-87
2023/02/06 07:16:49;;;;;;;14.00;8.30;;;;;;;;;;4344976;32;317433;-88
2023/02/06 07:19:17;;;;;;;17.73;5.90;;;;;;;;;;4335764;32;316502;-87
2023/02/06 07:21:47;;;;;;;12.37;7.70;;;;;;;;;;4344577;32;317455;-87
2023/02/06 07:24:13;;;;;;;12.30;5.00;;;;;;;;;;4335925;32;317336;-87
2023/02/06 07:26:41;;;;;;;21.70;11.97;;;;;;;;;;4346079;32;317421;-88
2023/02/06 07:29:08;;;;;;;14.97;9.57;;;;;;;;;;4346507;32;342465;-87
2023/02/06 07:31:35;;;;;;;12.07;7.47;;;;;;;;;;4334778;32;414933;-88
2023/02/06 07:34:02;;;;;;;15.20;9.10;;;;;;;;;;4346285;32;316313;-87
2023/02/06 07:36:31;;;;;;;16.60;8.07;;;;;;;;;;4336263;32;316546;-87
2023/02/06 07:38:59;;;;;;;9.00;6.33;;;;;;;;;;4348461;32;317469;-88
2023/02/06 07:41:26;;;;;;;12.47;6.87;;;;;;;;;;4338756;32;316204;-88
2023/02/06 07:43:54;;;;;;;107.17;38.97;;;;;;;;;;4346042;32;316650;-88
2023/02/06 07:46:21;;;;;;;25.27;11.27;;;;;;;;;;4338624;32;318588;-87
2023/02/06 07:48:48;;;;;;;10.93;7.57;;;;;;;;;;4350515;32;317596;-88
2023/02/06 07:51:14;;;;;;;10.83;7.07;;;;;;;;;;4339706;32;315415;-88
2023/02/06 07:53:43;;;;;;;13.77;7.10;;;;;;;;;;4347389;32;316622;-88
2023/02/06 07:56:11;;;;;;;11.27;7.10;;;;;;;;;;4337549;32;317095;-87
2023/02/06 07:58:38;;;;;;;11.17;7.37;;;;;;;;;;4345313;32;316634;-87
2023/02/06 08:01:06;;;;;;;12.80;7.43;;;;;;;;;;4344125;32;316665;-88
2023/02/06 08:03:33;;;;;;;24.47;12.63;;;;;;;;;;4335318;32;317270;-88
2023/02/06 08:06:00;;;;;;;20.27;9.13;;;;;;;;;;4342980;32;317319;-88
2023/02/06 08:08:27;;;;;;;12.43;7.03;;;;;;;;;;4332808;32;317416;-88
2023/02/06 08:10:55;;;;;;;11.17;6.90;;;;;;;;;;4344274;32;316661;-87
2023/02/06 08:13:22;;;;;;;9.57;5.30;;;;;;;;;;4332994;32;316454;-89
2023/02/06 08:16:10;;;;;;;12.27;7.37;;;;;;;;;;4343648;32;315508;-86
2023/02/06 08:18:38;;;;;;;45.20;17.47;;;;;;;;;;4346515;32;417145;-87
2023/02/06 08:21:07;;;;;;;23.13;12.37;;;;;;;;;;4359194;32;324691;-87
2023/02/06 08:23:34;;;;;;;12.73;8.43;;;;;;;;;;4345089;32;420072;-87
2023/02/06 08:26:05;;;;;;;14.30;9.00;;;;;;;;;;4359386;32;316468;-87
2023/02/06 08:28:33;;;;;;;15.23;5.23;;;;;;;;;;4349041;32;316648;-88
2023/02/06 08:31:01;;;;;;;13.50;8.53;;;;;;;;;;4359087;32;317753;-87
2023/02/06 08:33:28;;;;;;;16.70;7.87;;;;;;;;;;4349095;32;321345;-87
2023/02/06 08:35:55;;;;;;;7.77;5.47;;;;;;;;;;4358282;32;339083;-90
2023/02/06 08:38:22;;;;;;;17.23;9.30;;;;;;;;;;4348015;32;331855;-88
2023/02/06 08:40:49;;;;;;;15.70;9.77;;;;;;;;;;4359062;32;316644;-86
2023/02/06 08:43:17;;;;;;;11.97;6.83;;;;;;;;;;4348863;32;316600;-88
2023/02/06 08:45:48;;;;;;;13.30;7.93;;;;;;;;;;4357352;32;317493;-89
2023/02/06 08:48:15;;;;;;;9.13;6.63;;;;;;;;;;4347345;32;316786;-88
2023/02/06 08:50:44;;;;;;;32.53;7.40;;;;;;;;;;4357436;32;316255;-85
2023/02/06 08:53:11;;;;;;;7.63;5.20;;;;;;;;;;4348188;32;316532;-86
2023/02/06 08:55:38;;;;;;;21.63;7.13;;;;;;;;;;4357302;32;322468;-86
2023/02/06 08:58:05;;;;;;;12.27;8.43;;;;;;;;;;4357992;32;316939;-86
2023/02/06 09:00:35;;;;;;;13.80;6.70;;;;;;;;;;4352621;32;316516;-86
2023/02/06 09:03:01;;;;;;;11.40;7.43;;;;;;;;;;4358650;32;316561;-86
2023/02/06 09:05:28;;;;;;;15.67;9.70;;;;;;;;;;4346901;32;317146;-87
2023/02/06 09:07:55;;;;;;;13.97;8.90;;;;;;;;;;4353415;32;316771;-85
2023/02/06 09:10:22;;;;;;;13.53;8.50;;;;;;;;;;4357250;32;316727;-85
2023/02/06 09:12:48;;;;;;;18.33;5.83;;;;;;;;;;4367800;32;316262;-84
2023/02/06 09:15:16;;;;;;;18.20;10.70;;;;;;;;;;4353607;32;316744;-84
2023/02/06 09:17:44;;;;;;;14.77;6.97;;;;;;;;;;4361214;32;318347;-85
2023/02/06 09:20:11;;;;;;;12.27;5.70;;;;;;;;;;4348423;32;316451;-84
2023/02/06 09:22:38;;;;;;;15.03;9.40;;;;;;;;;;4360723;32;316531;-85
2023/02/06 09:25:06;;;;;;;8.90;5.97;;;;;;;;;;4358702;32;316418;-85
2023/02/06 09:27:33;;;;;;;11.30;5.33;;;;;;;;;;4349082;32;316407;-85
2023/02/06 09:29:59;;;;;;;21.37;13.33;;;;;;;;;;4359162;32;316440;-84
2023/02/06 09:32:26;;;;;;;11.50;7.33;;;;;;;;;;4351683;32;318427;-85
2023/02/06 09:34:56;;;;;;;12.20;6.97;;;;;;;;;;4363524;32;316307;-87
2023/02/06 09:37:23;;;;;;;15.03;8.10;;;;;;;;;;4355002;32;316487;-87
2023/02/06 09:39:50;;;;;;;13.53;8.20;;;;;;;;;;4358628;32;327898;-87
2023/02/06 09:42:23;;;;;;;10.63;6.87;;;;;;;;;;4351062;32;316761;-86
2023/02/06 09:45:01;;;;;;;14.43;8.53;;;;;;;;;;4361696;32;316094;-87
2023/02/06 09:47:43;;;;;;;29.87;12.33;;;;;;;;;;4353518;32;316252;-87
2023/02/06 09:50:21;;;;;;;24.07;10.60;;;;;;;;;;4352669;32;318223;-87
2023/02/06 09:53:02;;;;;;;8.73;5.73;;;;;;;;;;4364555;32;317282;-86
2023/02/06 09:55:38;;;;;;;6.70;4.47;;;;;;;;;;4353186;32;314223;-87
2023/02/06 09:58:18;;;;;;;9.10;5.87;;;;;;;;;;4366371;32;316142;-87
2023/02/06 10:00:51;;;;;;;9.80;7.17;;;;;;;;;;4354564;32;388334;-87
2023/02/06 10:03:43;;;;;;;15.00;8.53;;;;;;;;;;4352447;32;316364;-88
2023/02/06 10:06:18;;;;;;;9.60;6.30;;;;;;;;;;4358517;32;316103;-86
2023/02/06 10:08:56;;;;;;;14.23;8.90;;;;;;;;;;4362624;32;315697;-87
2023/02/06 10:11:41;;;;;;;12.33;9.03;;;;;;;;;;4357236;32;317038;-86
2023/02/06 10:14:17;;;;;;;12.40;7.20;;;;;;;;;;4370659;32;317106;-87
2023/02/06 10:16:48;;;;;;;13.23;8.00;;;;;;;;;;4358739;32;417858;-87
2023/02/06 10:19:23;;;;;;;10.87;6.93;;;;;;;;;;4351664;32;317097;-86
2023/02/06 10:21:56;;;;;;;13.43;8.70;;;;;;;;;;4360685;32;316703;-87
2023/02/06 10:24:32;;;;;;;15.43;10.20;;;;;;;;;;4348833;32;317256;-87
2023/02/06 10:27:03;;;;;;;13.50;7.53;;;;;;;;;;4359117;32;318371;-88
2023/02/06 10:29:33;;;;;;;14.87;8.43;;;;;;;;;;4350683;32;316450;-87
2023/02/06 10:32:13;;;;;;;19.50;11.17;;;;;;;;;;4364647;32;316576;-90
2023/02/06 10:34:56;;;;;;;18.77;8.17;;;;;;;;;;4349595;32;417711;-88
2023/02/06 10:37:46;;;;;;;13.83;8.37;;;;;;;;;;4351991;32;317296;-87
2023/02/06 10:40:30;;;;;;;17.87;10.07;;;;;;;;;;4349369;32;356224;-87
2023/02/06 10:43:03;;;;;;;15.27;9.77;;;;;;;;;;4361341;32;352509;-87
2023/02/06 10:45:42;;;;;;;21.03;10.57;;;;;;;;;;4352297;32;317602;-87
2023/02/06 10:48:25;;;;;;;14.83;10.10;;;;;;;;;;4363302;32;318344;-87
2023/02/06 10:50:56;;;;;;;38.43;17.93;;;;;;;;;;4348999;32;418592;-87
2023/02/06 10:53:27;;;;;;;24.03;13.63;;;;;;;;;;4351413;32;317580;-88
2023/02/06 10:55:58;;;;;;;69.93;31.73;;;;;;;;;;4360887;32;318519;-88
2023/02/06 10:58:29;;;;;;;31.20;17.97;;;;;;;;;;4351595;32;317557;-89
2023/02/06 11:00:59;;;;;;;28.47;16.77;;;;;;;;;;4362446;32;317528;-89
2023/02/06 11:03:30;;;;;;;31.33;14.30;;;;;;;;;;4351484;32;318615;-89
2023/02/06 11:05:57;;;;;;;24.60;13.47;;;;;;;;;;4360350;32;318295;-88
2023/02/06 11:08:32;;;;;;;21.80;12.20;;;;;;;;;;4349826;32;318268;-86
2023/02/06 11:11:17;;;;;;;34.13;17.57;;;;;;;;;;4360549;32;332424;-88
2023/02/06 11:13:47;;;;;;;20.30;10.97;;;;;;;;;;4346601;32;418330;-88
2023/02/06 11:16:16;;;;;;;26.03;13.53;;;;;;;;;;4351574;32;318421;-88
2023/02/06 11:18:46;;;;;;;23.03;12.40;;;;;;;;;;4359974;32;318203;-88
2023/02/06 11:21:15;;;;;;;41.07;18.10;;;;;;;;;;4351972;32;317509;-89
2023/02/06 11:23:43;;;;;;;28.83;16.10;;;;;;;;;;4362157;32;318197;-89
2023/02/06 11:26:13;;;;;;;43.53;19.37;;;;;;;;;;4352348;32;318450;-89
2023/02/06 11:28:51;;;;;;;36.93;16.27;;;;;;;;;;4362203;32;317611;-88
2023/02/06 11:31:19;;;;;;;24.23;13.27;;;;;;;;;;4352677;32;317509;-90
2023/02/06 11:33:56;;;;;;;49.50;24.70;;;;;;;;;;4361061;32;317754;-87
2023/02/06 11:36:27;;;;;;;27.33;13.83;;;;;;;;;;4351954;32;317773;-89
2023/02/06 11:38:58;;;;;;;16.90;10.40;;;;;;;;;;4362534;32;317935;-89
2023/02/06 11:41:25;;;;;;;23.03;12.37;;;;;;;;;;4353357;32;318159;-89
2023/02/06 11:43:53;;;;;;;19.30;11.43;;;;;;;;;;4358884;32;317726;-89
2023/02/06 11:46:24;;;;;;;39.23;19.10;;;;;;;;;;4348605;32;318287;-89
2023/02/06 11:49:06;;;;;;;20.77;11.33;;;;;;;;;;4359064;32;317750;-90
2023/02/06 11:51:50;;;;;;;21.37;11.20;;;;;;;;;;4350191;32;318438;-88
2023/02/06 11:54:26;;;;;;;23.93;15.27;;;;;;;;;;4349569;32;318404;-89
2023/02/06 11:57:02;;;;;;;27.03;10.40;;;;;;;;;;4360028;32;317820;-88
2023/02/06 11:59:32;;;;;;;10.40;7.83;;;;;;;;;;4351140;32;317995;-90
2023/02/06 12:02:00;;;;;;;12.83;8.03;;;;;;;;;;4359363;32;347056;-90
2023/02/06 12:04:32;;;;;;;11.23;7.47;;;;;;;;;;4351006;32;316526;-89
2023/02/06 12:07:05;;;;;;;13.30;8.10;;;;;;;;;;4358846;32;317236;-89
2023/02/06 12:09:33;;;;;;;19.70;11.93;;;;;;;;;;4350449;32;316598;-90
2023/02/06 12:12:04;;;;;;;14.13;8.57;;;;;;;;;;4358907;32;317692;-89
2023/02/06 12:14:37;;;;;;;24.87;12.03;;;;;;;;;;4350037;32;316523;-89
2023/02/06 12:17:09;;;;;;;12.80;8.03;;;;;;;;;;4359785;32;317518;-87
2023/02/06 12:19:49;;;;;;;10.10;7.37;;;;;;;;;;4344476;32;416171;-87
2023/02/06 12:22:20;;;;;;;13.70;6.93;;;;;;;;;;4348925;32;316387;-88
2023/02/06 12:24:50;;;;;;;12.03;7.20;;;;;;;;;;4359984;32;317121;-88
2023/02/06 12:27:22;;;;;;;7.13;5.03;;;;;;;;;;4348086;32;317278;-88
2023/02/06 12:29:57;;;;;;;9.30;6.23;;;;;;;;;;4359129;32;316505;-89
2023/02/06 12:32:29;;;;;;;8.37;6.33;;;;;;;;;;4349626;32;316544;-87
2023/02/06 12:35:01;;;;;;;21.10;11.50;;;;;;;;;;4359466;32;315990;-87
2023/02/06 12:37:31;;;;;;;8.07;5.43;;;;;;;;;;4349539;32;317684;-89
2023/02/06 12:40:00;;;;;;;9.43;5.80;;;;;;;;;;4361258;32;316135;-88
2023/02/06 12:42:38;;;;;;;12.63;7.20;;;;;;;;;;4349719;32;316441;-87
2023/02/06 12:45:15;;;;;;;18.53;6.43;;;;;;;;;;4359413;32;316644;-88
2023/02/06 12:47:48;;;;;;;16.70;8.83;;;;;;;;;;4347223;32;416692;-86
2023/02/06 12:50:18;;;;;;;14.43;10.47;;;;;;;;;;4357116;32;316254;-87
2023/02/06 12:52:50;;;;;;;26.10;10.10;;;;;;;;;;4361083;32;318235;-86
2023/02/06 12:55:25;;;;;;;20.37;9.03;;;;;;;;;;4348390;32;318023;-90
2023/02/06 12:57:53;;;;;;;14.20;8.50;;;;;;;;;;4358375;32;316908;-87
2023/02/06 13:00:49;;;;;;;13.87;8.97;;;;;;;;;;4347181;32;347613;-86
2023/02/06 13:03:25;;;;;;;12.47;8.63;;;;;;;;;;4348235;32;317329;-86
2023/02/06 13:05:55;;;;;;;20.60;10.83;;;;;;;;;;4357014;32;316392;-90
2023/02/06 13:08:26;;;;;;;22.83;11.20;;;;;;;;;;4348039;32;317450;-89
2023/02/06 13:11:03;;;;;;;18.77;10.40;;;;;;;;;;4358217;32;317844;-89
2023/02/06 13:13:33;;;;;;;32.80;16.30;;;;;;;;;;4346959;32;320534;-86
2023/02/06 13:16:00;;;;;;;20.17;12.13;;;;;;;;;;4357680;32;317736;-86
2023/02/06 13:18:51;;;;;;;17.27;8.50;;;;;;;;;;4348299;32;318444;-87
2023/02/06 13:21:21;;;;;;;37.77;19.33;;;;;;;;;;4348423;32;316434;-86
2023/02/06 13:23:50;;;;;;;18.13;9.73;;;;;;;;;;4356602;32;317643;-87
2023/02/06 13:26:18;;;;;;;23.23;11.43;;;;;;;;;;4347445;32;317385;-87
2023/02/06 13:28:59;;;;;;;30.43;13.43;;;;;;;;;;4357060;32;317928;-87
2023/02/06 13:31:32;;;;;;;23.63;14.23;;;;;;;;;;4348842;32;317970;-87
2023/02/06 13:34:02;;;;;;;22.53;10.67;;;;;;;;;;4358728;32;317702;-89
2023/02/06 13:36:48;;;;;;;20.50;10.87;;;;;;;;;;4347485;32;318318;-87
2023/02/06 13:39:32;;;;;;;20.03;12.03;;;;;;;;;;4346040;32;324715;-87
2023/02/06 13:42:23;;;;;;;27.97;15.60;;;;;;;;;;4356520;32;318933;-88
2023/02/06 13:44:52;;;;;;;38.03;16.60;;;;;;;;;;4344584;32;418242;-87
2023/02/06 13:47:56;;;;;;;38.57;18.50;;;;;;;;;;4347837;32;317578;-88
2023/02/06 13:50:41;;;;;;;37.80;16.87;;;;;;;;;;4346398;32;317455;-88
2023/02/06 13:53:30;;;;;;;12.13;8.93;;;;;;;;;;4356143;32;317647;-89
2023/02/06 13:56:15;;;;;;;19.03;10.33;;;;;;;;;;4344058;32;417257;-88
2023/02/06 13:58:48;;;;;;;20.07;10.90;;;;;;;;;;4345368;32;419148;-88
2023/02/06 14:01:19;;;;;;;35.17;17.83;;;;;;;;;;4346866;32;318223;-90
2023/02/06 14:03:49;;;;;;;38.40;17.43;;;;;;;;;;4356462;32;317620;-88
2023/02/06 14:06:46;;;;;;;16.07;9.33;;;;;;;;;;4347859;32;318582;-88
2023/02/06 14:09:29;;;;;;;29.23;14.40;;;;;;;;;;4347868;32;317075;-88
2023/02/06 14:15:06;;;;;;;13.27;8.67;;;;;;;;;;4344929;32;389020;-88
2023/02/06 14:17:43;;;;;;;11.60;7.73;;;;;;;;;;4347112;32;317188;-89
2023/02/06 14:20:22;;;;;;;16.13;9.30;;;;;;;;;;4353102;32;317584;-87
2023/02/06 14:23:01;;;;;;;11.73;7.40;;;;;;;;;;4357539;32;316594;-89
2023/02/06 14:25:48;;;;;;;10.57;7.37;;;;;;;;;;4341901;32;316472;-88
2023/02/06 14:28:25;;;;;;;18.70;11.57;;;;;;;;;;4355463;32;317260;-88
2023/02/06 14:31:01;;;;;;;19.47;10.73;;;;;;;;;;4356371;32;318394;-88
2023/02/06 14:33:45;;;;;;;24.47;9.93;;;;;;;;;;4347754;32;318207;-88
2023/02/06 14:36:23;;;;;;;25.87;15.00;;;;;;;;;;4347234;32;316522;-88
2023/02/06 14:39:28;;;;;;;25.53;12.20;;;;;;;;;;4358277;32;317843;-87
2023/02/06 14:41:57;;;;;;;37.13;18.43;;;;;;;;;;4345292;32;417454;-89
2023/02/06 14:44:30;;;;;;;30.93;16.73;;;;;;;;;;4346363;32;318426;-87